Time;durP1;ratioP1;P1;durP2;ratioP2;P2;SDS_P1;SDS_P2;PMS_P1;PMS_P2;Temp;Humidity;BMP_temperature;BMP_pressure;BME280_temperature;BME280_humidity;BME280_pressure;Samples;Min_cycle;Max_cycle;Signal;HPM_P1;HPM_P2
2021/09/02 00:00:47;;;;;;;2.95;2.75;;;20.20;79.10;;;;;;4193926;28;20094;-64
2021/09/02 00:03:09;;;;;;;3.13;2.92;;;20.20;79.20;;;;;;4194225;28;20052;-64
2021/09/02 00:05:32;;;;;;;2.60;2.47;;;20.20;79.20;;;;;;4193736;28;20037;-64
2021/09/02 00:07:54;;;;;;;4.38;2.67;;;20.20;79.20;;;;;;4187631;28;20090;-64
2021/09/02 00:10:16;;;;;;;3.45;2.70;;;20.20;79.20;;;;;;4193479;28;20564;-65
2021/09/02 00:12:38;;;;;;;2.88;2.70;;;20.20;79.20;;;;;;4193204;28;20048;-64
2021/09/02 00:15:01;;;;;;;2.85;2.72;;;20.20;79.20;;;;;;4193377;28;20037;-64
2021/09/02 00:17:24;;;;;;;3.78;2.78;;;20.10;79.00;;;;;;4191333;28;20040;-64
2021/09/02 00:19:46;;;;;;;3.20;3.00;;;20.10;79.30;;;;;;4192585;28;20076;-64
2021/09/02 00:22:08;;;;;;;2.72;2.53;;;20.10;79.30;;;;;;4192905;28;20491;-65
2021/09/02 00:24:30;;;;;;;3.00;2.80;;;20.10;79.20;;;;;;4192323;28;20049;-64
2021/09/02 00:26:52;;;;;;;3.10;2.90;;;20.10;79.10;;;;;;4192231;28;20090;-64
2021/09/02 00:29:14;;;;;;;3.03;2.80;;;20.10;79.10;;;;;;4193322;28;20562;-65
2021/09/02 00:31:37;;;;;;;2.95;2.75;;;20.10;79.10;;;;;;4193406;28;20052;-65
2021/09/02 00:33:59;;;;;;;2.70;2.60;;;20.10;78.90;;;;;;4192415;28;20102;-66
2021/09/02 00:36:21;;;;;;;2.58;2.38;;;20.10;79.20;;;;;;4192701;28;20106;-65
2021/09/02 00:38:43;;;;;;;2.30;2.20;;;20.10;79.20;;;;;;4192151;28;20044;-66
2021/09/02 00:41:06;;;;;;;2.78;2.58;;;20.10;79.20;;;;;;4192490;28;20045;-66
2021/09/02 00:43:31;;;;;;;2.50;2.25;;;20.10;79.20;;;;;;4192478;28;20044;-66
2021/09/02 00:45:55;;;;;;;1.95;1.85;;;20.00;79.00;;;;;;4191954;28;20051;-66
2021/09/02 00:48:18;;;;;;;2.40;2.20;;;20.00;79.00;;;;;;4192606;28;20101;-67
2021/09/02 00:50:40;;;;;;;2.17;2.00;;;20.00;78.80;;;;;;4191956;28;20106;-66
2021/09/02 00:53:03;;;;;;;2.42;2.30;;;20.00;79.00;;;;;;4192386;28;20052;-66
2021/09/02 00:55:25;;;;;;;2.55;2.45;;;20.00;78.90;;;;;;4192485;28;20051;-66
2021/09/02 00:57:47;;;;;;;2.60;2.50;;;20.00;79.00;;;;;;4192286;28;20135;-66
2021/09/02 01:00:11;;;;;;;2.42;2.22;;;20.00;79.00;;;;;;4191858;28;20483;-65
2021/09/02 01:02:33;;;;;;;2.63;2.42;;;20.00;78.90;;;;;;4192501;28;20479;-66
2021/09/02 01:04:59;;;;;;;2.50;2.30;;;20.00;79.10;;;;;;4192269;28;20047;-66
2021/09/02 01:07:23;;;;;;;2.70;2.50;;;20.00;78.80;;;;;;4191546;28;20491;-65
2021/09/02 01:09:46;;;;;;;3.00;2.80;;;20.00;79.10;;;;;;4191876;28;20505;-66
2021/09/02 01:12:31;;;;;;;2.72;2.53;;;20.00;79.00;;;;;;4192371;28;20129;-65
2021/09/02 01:14:54;;;;;;;2.33;2.10;;;20.00;78.30;;;;;;4191685;28;20116;-65
2021/09/02 01:17:16;;;;;;;2.42;2.30;;;20.00;79.30;;;;;;4192369;28;20041;-65
2021/09/02 01:19:38;;;;;;;2.63;2.42;;;20.00;79.30;;;;;;4191632;28;20064;-65
2021/09/02 01:22:02;;;;;;;4.53;3.30;;;20.00;79.30;;;;;;4191999;28;20051;-65
2021/09/02 01:24:25;;;;;;;3.17;3.00;;;19.90;79.00;;;;;;4191322;28;20048;-65
2021/09/02 01:26:48;;;;;;;2.85;2.63;;;19.90;79.20;;;;;;4191951;28;20460;-65
2021/09/02 01:29:13;;;;;;;3.45;3.05;;;19.90;79.30;;;;;;4191524;28;20051;-65
2021/09/02 01:31:35;;;;;;;3.78;3.47;;;19.90;79.40;;;;;;4151127;28;1162572;-65
2021/09/02 01:33:57;;;;;;;4.10;3.42;;;19.90;79.60;;;;;;4186194;28;20056;-65
2021/09/02 01:36:19;;;;;;;3.97;3.67;;;19.90;79.70;;;;;;4176007;28;20159;-65
2021/09/02 01:38:41;;;;;;;4.20;3.80;;;19.90;79.80;;;;;;4175847;28;20135;-62
2021/09/02 01:41:05;;;;;;;4.13;3.83;;;19.90;79.70;;;;;;4175814;28;20049;-63
2021/09/02 01:43:27;;;;;;;3.63;3.33;;;19.90;79.50;;;;;;4175905;28;20041;-64
2021/09/02 01:45:50;;;;;;;4.20;3.55;;;19.90;79.60;;;;;;4175719;28;20091;-63
2021/09/02 01:48:12;;;;;;;4.20;3.90;;;19.90;79.50;;;;;;4175954;28;20055;-63
2021/09/02 01:50:40;;;;;;;3.60;3.35;;;19.90;79.60;;;;;;4175365;28;20048;-64
2021/09/02 01:53:05;;;;;;;3.97;3.55;;;19.80;79.70;;;;;;4175900;28;20109;-64
2021/09/02 01:55:28;;;;;;;3.95;3.67;;;19.80;79.60;;;;;;4188093;28;20048;-63
2021/09/02 01:57:52;;;;;;;4.50;4.07;;;19.80;79.70;;;;;;4191142;28;20048;-63
2021/09/02 02:00:16;;;;;;;3.78;3.58;;;19.80;79.50;;;;;;4191840;28;20825;-64
2021/09/02 02:02:38;;;;;;;3.63;3.33;;;19.80;79.70;;;;;;4192186;28;20060;-63
2021/09/02 02:05:01;;;;;;;4.25;3.40;;;19.80;79.60;;;;;;4192029;28;20056;-64
2021/09/02 02:07:23;;;;;;;3.25;2.95;;;19.80;79.50;;;;;;4192091;28;20041;-63
2021/09/02 02:09:45;;;;;;;3.35;3.08;;;19.80;79.50;;;;;;4191466;28;20448;-63
2021/09/02 02:12:08;;;;;;;3.22;3.03;;;19.70;79.30;;;;;;4192151;28;20498;-64
2021/09/02 02:14:31;;;;;;;2.80;2.70;;;19.80;79.30;;;;;;4191641;28;20053;-63
2021/09/02 02:16:54;;;;;;;3.55;3.10;;;19.80;78.90;;;;;;4191716;28;20504;-63
2021/09/02 02:19:16;;;;;;;3.22;2.90;;;19.80;79.20;;;;;;4191675;28;20051;-64
2021/09/02 02:21:38;;;;;;;3.63;3.00;;;19.80;79.20;;;;;;4191714;28;20052;-64
2021/09/02 02:24:00;;;;;;;3.15;2.70;;;19.70;79.10;;;;;;4191499;28;20052;-63
2021/09/02 02:26:23;;;;;;;3.28;2.97;;;19.80;79.40;;;;;;4191820;28;20071;-63
2021/09/02 02:28:45;;;;;;;3.78;3.47;;;19.70;79.50;;;;;;4191297;28;20052;-63
2021/09/02 02:31:09;;;;;;;3.08;2.88;;;19.70;79.60;;;;;;4191349;28;20061;-63
2021/09/02 02:33:31;;;;;;;3.85;3.55;;;19.70;79.50;;;;;;4174920;28;20149;-64
2021/09/02 02:35:53;;;;;;;3.53;3.22;;;19.70;79.50;;;;;;4180232;28;20568;-63
2021/09/02 02:38:16;;;;;;;4.90;3.47;;;19.70;79.50;;;;;;4191113;28;20044;-64
2021/09/02 02:40:38;;;;;;;3.28;3.08;;;19.70;79.50;;;;;;4191887;28;20464;-63
2021/09/02 02:43:00;;;;;;;3.88;3.40;;;19.70;79.60;;;;;;4191282;28;20522;-63
2021/09/02 02:45:22;;;;;;;3.08;2.80;;;19.70;79.60;;;;;;4191263;28;20050;-65
2021/09/02 02:47:46;;;;;;;4.45;3.42;;;19.70;79.60;;;;;;4191367;28;20048;-64
2021/09/02 02:50:09;;;;;;;3.70;3.28;;;19.60;79.40;;;;;;4191487;28;20440;-64
2021/09/02 02:52:32;;;;;;;7.45;3.55;;;19.60;79.80;;;;;;4191361;28;20496;-63
2021/09/02 02:54:54;;;;;;;3.92;3.47;;;19.60;79.80;;;;;;4191559;28;20494;-63
2021/09/02 02:57:16;;;;;;;4.55;3.47;;;19.60;80.00;;;;;;4191390;28;20094;-63
2021/09/02 02:59:38;;;;;;;3.05;2.85;;;19.60;80.00;;;;;;4191289;28;20457;-64
2021/09/02 03:02:00;;;;;;;4.90;3.47;;;19.60;80.00;;;;;;4191057;28;20074;-65
2021/09/02 03:04:24;;;;;;;3.58;3.15;;;19.60;80.00;;;;;;4191207;28;20056;-65
2021/09/02 03:06:46;;;;;;;3.85;3.55;;;19.60;79.90;;;;;;4191372;28;20059;-64
2021/09/02 03:09:08;;;;;;;5.45;3.75;;;19.60;80.00;;;;;;4190729;28;20094;-64
2021/09/02 03:11:31;;;;;;;4.30;3.80;;;19.60;80.00;;;;;;4190137;28;20045;-65
2021/09/02 03:13:53;;;;;;;3.60;3.10;;;19.60;80.00;;;;;;4191222;28;20048;-64
2021/09/02 03:16:15;;;;;;;4.63;2.92;;;19.60;80.10;;;;;;4191428;28;20357;-64
2021/09/02 03:18:37;;;;;;;2.92;2.72;;;19.60;80.10;;;;;;4190866;28;20110;-65
2021/09/02 03:21:01;;;;;;;3.25;2.78;;;19.60;80.00;;;;;;4191187;28;20055;-65
2021/09/02 03:23:23;;;;;;;3.58;3.28;;;19.60;80.70;;;;;;4190720;28;20037;-66
2021/09/02 03:25:46;;;;;;;3.05;2.85;;;19.60;80.10;;;;;;4174861;28;20147;-65
2021/09/02 03:28:08;;;;;;;3.10;2.90;;;19.50;80.10;;;;;;4174288;28;20090;-66
2021/09/02 03:30:30;;;;;;;3.85;3.17;;;19.60;80.20;;;;;;4174497;28;20446;-65
2021/09/02 03:32:52;;;;;;;5.80;3.22;;;19.50;80.30;;;;;;4174665;28;20140;-65
2021/09/02 03:35:15;;;;;;;3.33;3.00;;;19.50;80.40;;;;;;4174193;28;20414;-65
2021/09/02 03:37:38;;;;;;;3.22;2.95;;;19.50;80.40;;;;;;4174331;28;20064;-64
2021/09/02 03:40:00;;;;;;;3.10;2.78;;;19.50;80.50;;;;;;4174598;28;20045;-65
2021/09/02 03:42:22;;;;;;;3.30;3.00;;;19.50;80.70;;;;;;4174192;28;20460;-64
2021/09/02 03:44:44;;;;;;;3.88;3.33;;;19.50;80.80;;;;;;4183350;28;20040;-65
2021/09/02 03:47:06;;;;;;;4.57;3.22;;;19.50;80.80;;;;;;4189390;28;20126;-65
2021/09/02 03:49:29;;;;;;;4.75;3.20;;;19.50;80.90;;;;;;4190867;28;20136;-64
2021/09/02 03:51:51;;;;;;;3.50;3.05;;;19.50;81.10;;;;;;4190852;28;20036;-64
2021/09/02 03:54:14;;;;;;;4.40;3.28;;;19.50;81.20;;;;;;4189811;28;20449;-64
2021/09/02 03:56:36;;;;;;;3.83;3.33;;;19.50;81.20;;;;;;4190803;28;20044;-64
2021/09/02 03:58:58;;;;;;;3.72;3.42;;;19.50;81.60;;;;;;4190534;28;20463;-64
2021/09/02 04:01:20;;;;;;;5.70;4.13;;;19.50;81.60;;;;;;4190923;28;20036;-64
2021/09/02 04:03:43;;;;;;;3.97;3.58;;;19.50;81.80;;;;;;4190730;28;20128;-65
2021/09/02 04:06:05;;;;;;;4.47;3.65;;;19.50;81.80;;;;;;4190708;28;20057;-64
2021/09/02 04:08:27;;;;;;;6.57;3.97;;;19.50;81.80;;;;;;4190913;28;20045;-64
2021/09/02 04:10:51;;;;;;;5.10;3.92;;;19.50;81.90;;;;;;4190384;28;20047;-63
2021/09/02 04:13:13;;;;;;;4.43;3.90;;;19.50;81.80;;;;;;4190734;28;20049;-64
2021/09/02 04:15:35;;;;;;;4.90;3.90;;;19.50;82.00;;;;;;4190670;28;20052;-64
2021/09/02 04:17:58;;;;;;;5.05;3.63;;;19.50;82.10;;;;;;4190822;28;20132;-64
2021/09/02 04:20:22;;;;;;;4.88;3.58;;;19.50;82.20;;;;;;4173636;28;20071;-64
2021/09/02 04:22:44;;;;;;;5.75;4.00;;;19.50;82.30;;;;;;4177815;28;20057;-64
2021/09/02 04:25:07;;;;;;;7.65;3.90;;;19.50;82.50;;;;;;4176900;28;20045;-64
2021/09/02 04:27:31;;;;;;;5.78;4.05;;;19.50;82.50;;;;;;4177051;28;20037;-64
2021/09/02 04:29:53;;;;;;;6.18;4.03;;;19.50;82.50;;;;;;4175220;28;20049;-64
2021/09/02 04:32:15;;;;;;;4.32;3.83;;;19.50;82.50;;;;;;4176744;28;20049;-64
2021/09/02 04:34:38;;;;;;;7.47;4.55;;;19.50;82.60;;;;;;4177015;28;20819;-64
2021/09/02 04:36:59;;;;;;;8.80;4.70;;;19.50;82.70;;;;;;4176944;28;20052;-65
2021/09/02 04:39:22;;;;;;;10.00;4.60;;;19.50;82.80;;;;;;4187268;28;24053;-65
2021/09/02 04:41:44;;;;;;;12.35;4.90;;;19.50;82.80;;;;;;4193133;28;20048;-65
2021/09/02 04:44:07;;;;;;;13.75;4.93;;;19.50;82.80;;;;;;4193366;28;20049;-66
2021/09/02 04:46:29;;;;;;;8.18;4.13;;;19.50;82.70;;;;;;4193154;28;20048;-65
2021/09/02 04:48:51;;;;;;;4.75;3.85;;;19.50;82.80;;;;;;4193607;28;20054;-65
2021/09/02 04:51:14;;;;;;;6.38;4.50;;;19.50;82.90;;;;;;4193012;28;20044;-65
2021/09/02 04:53:36;;;;;;;9.18;4.10;;;19.40;82.90;;;;;;4193084;28;20106;-65
2021/09/02 04:55:58;;;;;;;6.95;4.72;;;19.50;82.90;;;;;;4193589;28;20139;-65
2021/09/02 04:58:20;;;;;;;8.38;4.25;;;19.50;83.00;;;;;;4192300;28;20512;-65
2021/09/02 05:00:44;;;;;;;6.90;5.25;;;19.50;83.00;;;;;;4189962;28;20040;-65
2021/09/02 05:03:06;;;;;;;5.07;4.35;;;19.50;83.00;;;;;;4192936;28;20056;-65
2021/09/02 05:05:28;;;;;;;4.90;4.50;;;19.50;83.10;;;;;;4193415;28;20056;-65
2021/09/02 05:07:51;;;;;;;6.90;4.78;;;19.50;83.20;;;;;;4192692;28;20083;-64
2021/09/02 05:10:13;;;;;;;7.22;4.20;;;19.40;84.10;;;;;;4192740;28;20053;-64
2021/09/02 05:12:35;;;;;;;8.57;4.82;;;19.50;83.40;;;;;;4193189;28;20623;-64
2021/09/02 05:14:57;;;;;;;5.97;4.30;;;19.40;83.40;;;;;;4192757;28;20041;-63
2021/09/02 05:17:21;;;;;;;7.82;4.60;;;19.40;83.40;;;;;;4192805;28;20044;-63
2021/09/02 05:19:43;;;;;;;6.00;4.38;;;19.40;83.40;;;;;;4193189;28;20044;-63
2021/09/02 05:22:05;;;;;;;5.35;4.57;;;19.40;83.60;;;;;;4192550;28;20056;-63
2021/09/02 05:24:28;;;;;;;9.93;5.00;;;19.40;83.70;;;;;;4192727;28;20083;-64
2021/09/02 05:26:50;;;;;;;8.73;5.07;;;19.40;83.70;;;;;;4192459;28;20048;-64
2021/09/02 05:29:12;;;;;;;9.93;5.00;;;19.40;83.70;;;;;;4193096;28;20543;-63
2021/09/02 05:31:34;;;;;;;6.53;4.95;;;19.40;83.70;;;;;;4191697;28;20037;-65
2021/09/02 05:33:58;;;;;;;8.63;4.97;;;19.40;83.80;;;;;;4182497;28;20049;-64
2021/09/02 05:36:20;;;;;;;6.90;5.40;;;19.40;83.90;;;;;;4176271;28;20053;-64
2021/09/02 05:38:42;;;;;;;8.52;5.47;;;19.40;84.20;;;;;;4183625;28;20115;-64
2021/09/02 05:41:04;;;;;;;7.80;5.50;;;19.40;84.30;;;;;;4192420;28;20056;-65
2021/09/02 05:43:26;;;;;;;10.80;4.80;;;19.40;84.30;;;;;;4192243;28;20055;-65
2021/09/02 05:45:48;;;;;;;14.20;5.28;;;19.40;84.30;;;;;;4192948;28;20080;-65
2021/09/02 05:48:10;;;;;;;7.72;5.22;;;19.50;84.50;;;;;;4192077;28;20059;-66
2021/09/02 05:50:34;;;;;;;10.85;5.50;;;19.50;84.40;;;;;;4191752;28;20051;-66
2021/09/02 05:52:56;;;;;;;12.18;5.70;;;19.50;84.30;;;;;;4185498;28;20045;-66
2021/09/02 05:55:19;;;;;;;8.10;5.38;;;19.50;84.20;;;;;;4191981;28;20052;-64
2021/09/02 05:57:41;;;;;;;7.78;5.55;;;19.50;84.20;;;;;;4189618;28;20053;-64
2021/09/02 06:00:05;;;;;;;10.95;5.78;;;19.50;84.20;;;;;;4192276;28;20119;-66
2021/09/02 06:02:32;;;;;;;11.98;6.18;;;19.50;84.20;;;;;;4191635;28;20128;-65
2021/09/02 06:04:54;;;;;;;12.30;5.85;;;19.50;84.20;;;;;;4191590;28;20124;-66
2021/09/02 06:07:17;;;;;;;12.00;6.03;;;19.50;84.20;;;;;;4191550;28;20508;-66
2021/09/02 06:09:39;;;;;;;8.05;5.88;;;19.50;84.20;;;;;;4195723;28;20123;-66
2021/09/02 06:12:01;;;;;;;9.10;5.35;;;19.50;84.20;;;;;;4176784;28;20490;-65
2021/09/02 06:14:23;;;;;;;11.90;5.85;;;19.50;84.30;;;;;;4191304;28;20402;-65
2021/09/02 06:16:45;;;;;;;10.45;5.95;;;19.50;84.40;;;;;;4192055;28;20075;-65
2021/09/02 06:19:08;;;;;;;9.45;5.55;;;19.50;84.40;;;;;;4191951;28;20048;-65
2021/09/02 06:21:29;;;;;;;7.95;5.57;;;19.50;84.40;;;;;;4191831;28;20109;-65
2021/09/02 06:23:53;;;;;;;9.25;5.65;;;19.50;84.40;;;;;;4189400;28;20051;-65
2021/09/02 06:26:15;;;;;;;7.75;5.65;;;19.50;84.40;;;;;;4184987;28;20047;-65
2021/09/02 06:28:37;;;;;;;10.27;6.18;;;19.50;84.50;;;;;;4190767;28;20396;-65
2021/09/02 06:30:59;;;;;;;7.13;5.13;;;19.50;84.50;;;;;;4188967;28;20454;-65
2021/09/02 06:33:22;;;;;;;10.02;5.57;;;19.50;84.50;;;;;;4191392;28;20048;-65
2021/09/02 06:35:47;;;;;;;11.10;6.43;;;19.50;84.60;;;;;;4207672;28;20502;-65
2021/09/02 06:38:09;;;;;;;7.47;5.38;;;19.50;84.60;;;;;;4194597;28;20090;-65
2021/09/02 06:40:33;;;;;;;8.13;5.75;;;19.50;84.60;;;;;;4191381;28;20479;-65
2021/09/02 06:42:55;;;;;;;10.95;5.65;;;19.50;84.70;;;;;;4190390;28;20048;-65
2021/09/02 06:45:18;;;;;;;8.40;6.00;;;19.50;84.70;;;;;;4190810;28;20044;-65
2021/09/02 06:47:40;;;;;;;8.27;5.32;;;19.50;84.80;;;;;;4191756;28;20114;-65
2021/09/02 06:50:03;;;;;;;6.82;4.90;;;19.50;84.80;;;;;;4191089;28;20498;-65
2021/09/02 06:52:25;;;;;;;7.57;5.75;;;19.50;84.90;;;;;;4189689;28;20094;-65
2021/09/02 06:54:47;;;;;;;8.50;5.07;;;19.50;85.00;;;;;;4188902;28;20040;-65
2021/09/02 06:57:11;;;;;;;9.65;6.03;;;19.40;85.00;;;;;;4190542;28;20055;-64
2021/09/02 06:59:33;;;;;;;11.77;6.32;;;19.50;85.20;;;;;;4190793;28;21025;-65
2021/09/02 07:01:54;;;;;;;9.35;5.18;;;19.50;85.20;;;;;;4190869;28;20058;-65
2021/09/02 07:04:17;;;;;;;8.25;5.30;;;19.50;85.40;;;;;;4191226;28;20094;-66
2021/09/02 07:06:39;;;;;;;8.57;5.43;;;19.50;89.80;;;;;;4190849;28;20051;-64
2021/09/02 07:09:01;;;;;;;7.65;5.50;;;19.60;90.10;;;;;;4191172;28;20044;-64
2021/09/02 07:11:23;;;;;;;8.02;4.82;;;19.50;90.30;;;;;;4174591;28;20127;-64
2021/09/02 07:13:46;;;;;;;7.88;5.20;;;19.60;90.50;;;;;;4179832;28;20056;-63
2021/09/02 07:16:08;;;;;;;9.35;5.82;;;19.60;90.50;;;;;;4191898;28;20099;-63
2021/09/02 07:18:31;;;;;;;9.65;5.57;;;19.60;90.40;;;;;;4191207;28;20529;-64
2021/09/02 07:20:53;;;;;;;7.82;5.68;;;19.60;90.30;;;;;;4190375;28;20036;-65
2021/09/02 07:23:15;;;;;;;6.90;5.28;;;19.60;90.10;;;;;;4190854;28;20064;-66
2021/09/02 07:25:37;;;;;;;7.80;5.18;;;19.60;90.10;;;;;;4190614;28;20071;-63
2021/09/02 07:27:59;;;;;;;7.95;4.80;;;19.60;90.00;;;;;;4190421;28;20498;-64
2021/09/02 07:30:23;;;;;;;11.15;6.22;;;19.60;89.80;;;;;;4185982;28;20044;-63
2021/09/02 07:32:45;;;;;;;9.23;4.95;;;19.60;89.50;;;;;;4190655;28;20513;-66
2021/09/02 07:35:08;;;;;;;7.10;5.25;;;19.60;89.40;;;;;;4196443;28;20758;-66
2021/09/02 07:37:30;;;;;;;9.05;5.25;;;19.60;89.20;;;;;;4198737;28;20089;-64
2021/09/02 07:39:52;;;;;;;6.95;4.72;;;19.60;89.20;;;;;;4200330;28;20506;-66
2021/09/02 07:42:14;;;;;;;7.35;5.03;;;19.60;89.10;;;;;;4190918;28;20058;-63
2021/09/02 07:44:37;;;;;;;6.45;4.30;;;19.60;89.00;;;;;;4190682;28;20048;-62
2021/09/02 07:47:00;;;;;;;5.50;4.95;;;19.60;88.70;;;;;;4198114;28;20048;-66
2021/09/02 07:49:22;;;;;;;7.20;4.78;;;19.60;88.70;;;;;;4190637;28;20127;-66
2021/09/02 07:51:45;;;;;;;9.10;4.82;;;19.60;88.50;;;;;;4190416;28;20119;-64
2021/09/02 07:54:07;;;;;;;5.68;4.13;;;19.60;88.40;;;;;;4190700;28;20060;-64
2021/09/02 07:56:29;;;;;;;6.88;4.22;;;19.60;88.50;;;;;;4193370;28;20127;-66
2021/09/02 07:58:51;;;;;;;11.38;5.15;;;19.60;88.40;;;;;;4193920;28;20525;-65
2021/09/02 08:01:13;;;;;;;8.65;5.13;;;19.60;89.10;;;;;;4193900;28;20044;-66
2021/09/02 08:03:37;;;;;;;7.35;4.80;;;19.60;88.40;;;;;;4193452;28;20064;-65
2021/09/02 08:05:59;;;;;;;9.52;4.78;;;19.60;88.40;;;;;;4193612;28;20102;-69
2021/09/02 08:08:22;;;;;;;7.18;4.93;;;19.60;89.40;;;;;;4210979;28;20124;-70
2021/09/02 08:10:46;;;;;;;6.68;4.35;;;19.70;88.40;;;;;;4193537;28;20044;-66
2021/09/02 08:13:08;;;;;;;8.70;4.72;;;19.70;88.40;;;;;;4181850;28;20098;-69
2021/09/02 08:15:30;;;;;;;7.53;4.47;;;19.70;88.20;;;;;;4192114;28;20067;-68
2021/09/02 08:17:58;;;;;;;8.32;4.60;;;19.70;88.10;;;;;;4193042;28;20063;-67
2021/09/02 08:20:22;;;;;;;9.77;5.05;;;19.70;88.00;;;;;;4192996;28;20106;-64
2021/09/02 08:22:45;;;;;;;6.00;4.00;;;19.70;87.80;;;;;;4192224;28;20040;-67
2021/09/02 08:25:09;;;;;;;8.30;4.60;;;19.70;87.80;;;;;;4193096;28;20040;-68
2021/09/02 08:27:31;;;;;;;7.88;4.30;;;19.70;87.50;;;;;;4192788;28;20049;-68
2021/09/02 08:29:53;;;;;;;9.45;4.90;;;19.70;87.40;;;;;;4192790;28;20052;-67
2021/09/02 08:32:15;;;;;;;10.98;5.53;;;19.70;87.10;;;;;;4192985;28;20530;-68
2021/09/02 08:34:38;;;;;;;9.85;4.70;;;19.70;87.10;;;;;;4193344;28;20123;-68
2021/09/02 08:37:01;;;;;;;8.25;4.20;;;19.70;87.20;;;;;;4193755;28;20055;-68
2021/09/02 08:39:23;;;;;;;9.85;4.82;;;19.70;87.10;;;;;;4193210;28;20059;-67
2021/09/02 08:41:45;;;;;;;11.60;4.63;;;19.70;87.00;;;;;;4193478;28;20075;-68
2021/09/02 08:44:09;;;;;;;6.18;4.15;;;19.70;86.60;;;;;;4193414;28;20076;-67
2021/09/02 08:46:31;;;;;;;9.70;4.65;;;19.70;86.30;;;;;;4193412;28;20449;-67
2021/09/02 08:48:54;;;;;;;6.68;3.97;;;19.70;86.90;;;;;;4193411;28;20044;-67
2021/09/02 08:51:16;;;;;;;7.07;3.95;;;19.70;85.90;;;;;;4192984;28;20487;-67
2021/09/02 08:53:40;;;;;;;7.72;4.38;;;19.70;85.80;;;;;;4193022;28;20414;-67
2021/09/02 08:56:03;;;;;;;7.38;4.47;;;19.70;85.70;;;;;;4176277;28;20435;-67
2021/09/02 08:58:25;;;;;;;7.88;4.32;;;19.70;85.90;;;;;;4176714;28;20095;-68
2021/09/02 09:00:47;;;;;;;8.65;4.90;;;19.70;85.90;;;;;;4176860;28;20132;-68
2021/09/02 09:03:09;;;;;;;8.68;4.50;;;19.70;85.70;;;;;;4176431;28;20726;-68
2021/09/02 09:05:33;;;;;;;6.07;3.78;;;19.70;85.40;;;;;;4200936;28;20048;-68
2021/09/02 09:07:55;;;;;;;7.75;3.97;;;19.80;85.20;;;;;;4194427;28;20040;-68
2021/09/02 09:10:21;;;;;;;6.63;3.53;;;19.70;84.60;;;;;;4192928;28;20123;-68
2021/09/02 09:12:45;;;;;;;6.22;3.50;;;19.70;84.40;;;;;;4193025;28;20056;-67
2021/09/02 09:15:09;;;;;;;8.70;4.30;;;19.80;83.80;;;;;;4193174;28;20076;-67
2021/09/02 09:17:31;;;;;;;4.93;3.55;;;19.80;84.00;;;;;;4192774;28;20465;-68
2021/09/02 09:19:53;;;;;;;6.43;4.05;;;19.80;85.20;;;;;;4193274;28;20044;-67
2021/09/02 09:22:15;;;;;;;9.27;3.90;;;19.80;83.70;;;;;;4192662;28;20056;-68
2021/09/02 09:24:43;;;;;;;5.68;4.20;;;19.80;83.70;;;;;;4192295;28;20485;-67
2021/09/02 09:27:09;;;;;;;3.60;3.25;;;19.80;83.70;;;;;;4192090;28;20049;-67
2021/09/02 09:29:32;;;;;;;6.97;3.25;;;19.80;83.90;;;;;;4192450;28;20582;-68
2021/09/02 09:31:54;;;;;;;6.43;3.38;;;19.80;84.10;;;;;;4192465;28;20808;-67
2021/09/02 09:34:16;;;;;;;6.07;3.38;;;19.80;84.30;;;;;;4192716;28;20053;-68
2021/09/02 09:36:40;;;;;;;5.60;3.08;;;19.80;83.90;;;;;;4192501;28;20117;-67
2021/09/02 09:39:05;;;;;;;9.20;3.72;;;19.80;83.50;;;;;;4192580;28;20048;-67
2021/09/02 09:41:38;;;;;;;6.97;3.45;;;19.80;83.60;;;;;;4192308;28;20048;-68
2021/09/02 09:44:22;;;;;;;3.58;2.97;;;19.80;83.40;;;;;;4192045;28;20053;-67
2021/09/02 09:47:06;;;;;;;4.60;2.90;;;19.80;83.50;;;;;;4175619;28;20052;-67
2021/09/02 09:49:34;;;;;;;6.20;3.25;;;19.80;84.00;;;;;;4176059;28;20052;-68
2021/09/02 09:51:56;;;;;;;5.82;3.28;;;19.80;83.90;;;;;;4174076;28;20132;-67
2021/09/02 09:54:26;;;;;;;10.43;3.13;;;19.80;84.00;;;;;;4180245;28;20624;-66
2021/09/02 09:56:48;;;;;;;7.97;3.33;;;19.80;83.50;;;;;;4192094;28;20094;-68
2021/09/02 09:59:10;;;;;;;5.65;3.38;;;19.90;83.90;;;;;;4190686;28;20051;-67
2021/09/02 10:01:35;;;;;;;7.32;3.20;;;19.90;83.90;;;;;;4191821;28;20414;-68
2021/09/02 10:03:59;;;;;;;3.28;2.63;;;19.90;83.60;;;;;;4190819;28;20044;-68
2021/09/02 10:06:23;;;;;;;5.10;3.38;;;19.90;83.60;;;;;;4191599;28;20395;-67
2021/09/02 10:08:46;;;;;;;5.60;3.00;;;19.90;83.30;;;;;;4191788;28;20084;-68
2021/09/02 10:11:11;;;;;;;5.47;3.40;;;19.90;83.50;;;;;;4192010;28;20135;-68
2021/09/02 10:13:34;;;;;;;8.07;3.22;;;19.90;83.50;;;;;;4191704;28;20044;-68
2021/09/02 10:15:57;;;;;;;10.77;3.70;;;19.90;83.50;;;;;;4207223;28;20842;-68
2021/09/02 10:18:21;;;;;;;5.03;2.72;;;19.90;83.20;;;;;;4207314;28;20071;-68
2021/09/02 10:20:46;;;;;;;7.53;3.05;;;19.90;83.00;;;;;;4207722;28;20401;-65
2021/09/02 10:23:08;;;;;;;7.32;3.42;;;19.90;83.40;;;;;;4208576;28;20067;-68
2021/09/02 10:25:40;;;;;;;5.63;2.97;;;19.90;83.30;;;;;;4175294;28;20102;-68
2021/09/02 10:28:03;;;;;;;6.53;3.35;;;20.00;82.80;;;;;;4174845;28;20411;-68
2021/09/02 10:30:26;;;;;;;5.47;2.95;;;20.00;82.90;;;;;;4175093;28;20047;-69
2021/09/02 10:32:49;;;;;;;6.03;3.38;;;20.00;83.00;;;;;;4173119;28;20052;-68
2021/09/02 10:35:33;;;;;;;7.53;3.60;;;20.00;82.50;;;;;;4205515;28;20490;-68
2021/09/02 10:37:55;;;;;;;5.80;3.35;;;20.00;81.90;;;;;;4207618;28;20113;-68
2021/09/02 10:40:50;;;;;;;7.75;3.55;;;20.00;81.70;;;;;;4207851;28;20043;-68
2021/09/02 10:43:12;;;;;;;7.50;3.40;;;20.00;81.50;;;;;;4205052;28;20046;-68
2021/09/02 10:45:35;;;;;;;5.75;3.72;;;20.00;83.40;;;;;;4191280;28;20048;-67
2021/09/02 10:47:59;;;;;;;6.93;4.13;;;20.00;82.70;;;;;;4174666;28;20048;-67
2021/09/02 10:50:23;;;;;;;6.40;4.05;;;20.00;82.40;;;;;;4174651;28;20052;-67
2021/09/02 10:52:47;;;;;;;8.05;4.35;;;20.00;82.00;;;;;;4174794;28;20073;-68
2021/09/02 10:55:28;;;;;;;9.38;3.63;;;20.00;81.40;;;;;;4174310;28;20055;-68
2021/09/02 10:57:51;;;;;;;5.45;3.38;;;20.00;81.00;;;;;;4174438;28;20133;-67
2021/09/02 11:00:32;;;;;;;8.35;3.97;;;20.00;82.60;;;;;;4174742;28;20446;-67
2021/09/02 11:03:12;;;;;;;9.05;4.00;;;20.00;81.40;;;;;;4174236;28;20427;-68
2021/09/02 11:05:35;;;;;;;5.30;3.22;;;20.00;81.70;;;;;;4174435;28;20045;-68
2021/09/02 11:07:58;;;;;;;5.07;4.05;;;20.00;81.50;;;;;;4174425;28;20458;-68
2021/09/02 11:10:22;;;;;;;5.78;3.90;;;20.10;81.20;;;;;;4174853;28;20524;-68
2021/09/02 11:12:45;;;;;;;8.07;4.00;;;20.10;80.20;;;;;;4174153;28;20415;-68
2021/09/02 11:15:08;;;;;;;7.10;3.65;;;20.10;79.60;;;;;;4190894;28;20053;-68
2021/09/02 11:17:30;;;;;;;6.30;3.70;;;20.10;79.90;;;;;;4190675;28;20094;-68
2021/09/02 11:20:20;;;;;;;6.20;3.80;;;20.10;80.50;;;;;;4191021;28;20056;-68
2021/09/02 11:22:42;;;;;;;6.65;3.85;;;20.10;80.70;;;;;;4190809;28;20048;-68
2021/09/02 11:25:06;;;;;;;7.25;4.28;;;20.10;80.80;;;;;;4189229;28;20115;-68
2021/09/02 11:27:30;;;;;;;5.32;3.28;;;20.10;80.30;;;;;;4190705;28;20045;-68
2021/09/02 11:29:52;;;;;;;10.77;4.20;;;20.20;81.20;;;;;;4193102;28;20045;-67
2021/09/02 11:32:14;;;;;;;9.55;3.90;;;20.20;81.00;;;;;;4193972;28;20508;-68
2021/09/02 11:34:37;;;;;;;5.43;3.70;;;20.20;81.00;;;;;;4194677;28;20044;-68
2021/09/02 11:36:59;;;;;;;7.68;4.00;;;20.20;81.40;;;;;;4194113;28;20090;-68
2021/09/02 11:39:26;;;;;;;5.32;3.83;;;20.20;80.80;;;;;;4194724;28;20049;-68
2021/09/02 11:41:59;;;;;;;6.18;3.30;;;20.20;79.80;;;;;;4193828;28;20045;-68
2021/09/02 11:44:21;;;;;;;6.90;3.63;;;20.20;80.20;;;;;;4193188;28;20054;-67
2021/09/02 11:46:43;;;;;;;5.40;3.42;;;20.30;81.00;;;;;;4193489;28;20036;-68
2021/09/02 11:49:05;;;;;;;7.03;3.83;;;20.30;81.10;;;;;;4193618;28;20079;-68
